Ponteland, United Kingdom
Current Conditions -  °F | °C
As of 5:50 PM on Saturday 20 Dec 2014 (Local Time) from EGNT Reporting Station
Clear Clear  
Wind Chill: 35°   Ceiling: Unl
Heat Index: 43°   Visibility: 6mi
Dew Point: 37°   Wind: 17mph
Humidity: 81%   Direction: 280°W
Pressure: 30.18"   Gusts: NA
Location:  55.05°N, 1.75°W
Report Text: EGNT 201750Z 28015KT CAVOK 06/03 Q1022
Loading
Personal Weather Stations






























Interactive Weather Map New forecast layout! Learn more

10-Day Weather Forecast

Advertisements
Track Severe Weather on mobile